Zhong Shan Men — 3FLE6 — position and weather

sailwx.info

Track history (hours):
 
Tides and Currents Weather Stations Pressure Air Temp Water Temp Dewpoint Dewpoint Depression Visibility Wind Speed Wind Dir Waves Ship Positions

Zhong Shan Men

Last reported at 2017-Jan-15 11:10 UTC. Time now 2017-Jan-17 07:03 UTC.
Position N 31°06' E 122°23'.

Length 189 m; draft 7.5 m.

Type: Cargo ship. MMSI: 351339000.

Date/timePositionNaut miles runAvg speedWind from/ knotsBaromVisibWave heightAir tempDewpointWater temp
2017-Jan-15 11:10N 31°06' E 122°23'711.8
2017-Jan-15 10:33N 31°08' E 122°15'1313.4
2017-Jan-15 09:33N 31°15' E 122°01'1312.6
2017-Jan-15 08:33N 31°18' E 121°47'1110.6
2017-Jan-15 07:33N 31°23' E 121°36'7 7.4
2017-Jan-15 06:33N 31°27' E 121°29'6 6.3
2017-Jan-15 05:33N 31°31' E 121°23'1010.3
2017-Jan-15 04:33N 31°38' E 121°14'1212.3
2017-Jan-15 03:33N 31°46' E 121°03'  
2017-Jan-10 05:31N 31°47' E 121°00'1212.7
2017-Jan-10 04:33N 31°40' E 121°12'1110.9
2017-Jan-10 03:33N 31°32' E 121°21'1010.3
2017-Jan-10 02:33N 31°25' E 121°30'9 9.1
2017-Jan-10 01:33N 31°21' E 121°40'1110.9
2017-Jan-10 00:33N 31°16' E 121°51'1010.3
2017-Jan-09 23:33N 31°14' E 122°03'1110.7
2017-Jan-09 22:33N 31°09' E 122°14'13 9.4
2017-Jan-09 21:11N 31°07' E 122°29'  
Track history (hours):
 
Tides and Currents Weather Stations Pressure Air Temp Water Temp Dewpoint Dewpoint Depression Visibility Wind Speed Wind Dir Waves Ship Positions

Zhong Shan Men

Last reported at 2017-Jan-15 11:10 UTC. Time now 2017-Jan-17 07:03 UTC.
Position N 31°06' E 122°23'.

Length 189 m; draft 7.5 m.

Type: Cargo ship. MMSI: 351339000.

Date/timePositionNaut miles runAvg speedWind from/ knotsBaromVisibWave heightAir tempDewpointWater temp
2017-Jan-15 11:10N 31°06' E 122°23'711.8
2017-Jan-15 10:33N 31°08' E 122°15'1313.4
2017-Jan-15 09:33N 31°15' E 122°01'1312.6
2017-Jan-15 08:33N 31°18' E 121°47'1110.6
2017-Jan-15 07:33N 31°23' E 121°36'7 7.4
2017-Jan-15 06:33N 31°27' E 121°29'6 6.3
2017-Jan-15 05:33N 31°31' E 121°23'1010.3
2017-Jan-15 04:33N 31°38' E 121°14'1212.3
2017-Jan-15 03:33N 31°46' E 121°03'  
2017-Jan-10 05:31N 31°47' E 121°00'1212.7
2017-Jan-10 04:33N 31°40' E 121°12'1110.9
2017-Jan-10 03:33N 31°32' E 121°21'1010.3
2017-Jan-10 02:33N 31°25' E 121°30'9 9.1
2017-Jan-10 01:33N 31°21' E 121°40'1110.9
2017-Jan-10 00:33N 31°16' E 121°51'1010.3
2017-Jan-09 23:33N 31°14' E 122°03'1110.7
2017-Jan-09 22:33N 31°09' E 122°14'13 9.4
2017-Jan-09 21:11N 31°07' E 122°29'  

Dump ship's entire track history